sensor_id;sensor_type;location;lat;lon;timestamp;pressure;altitude;pressure_sealevel;temperature;humidity
26192;BME280;13935;55.672;37.764;2023-05-10T05:54:49;100978.84;;;17.95;29.54
26192;BME280;13935;55.672;37.764;2023-05-10T05:59:43;100983.19;;;18.61;30.48
26192;BME280;13935;55.672;37.764;2023-05-10T06:01:35;100967.56;;;18.60;27.84
26192;BME280;13935;55.672;37.764;2023-05-10T06:02:42;100980.69;;;18.19;29.24
26192;BME280;13935;55.672;37.764;2023-05-10T06:03:46;100980.94;;;18.42;29.39
26192;BME280;13935;55.672;37.764;2023-05-10T06:05:09;100971.34;;;18.39;28.09
26192;BME280;13935;55.672;37.764;2023-05-10T06:21:22;100974.88;;;17.86;28.42
26192;BME280;13935;55.672;37.764;2023-05-10T06:42:49;100961.69;;;19.28;27.09
26192;BME280;13935;55.672;37.764;2023-05-10T06:45:57;100961.38;;;19.52;26.37
26192;BME280;13935;55.672;37.764;2023-05-10T06:47:01;100962.31;;;19.72;26.77
26192;BME280;13935;55.672;37.764;2023-05-10T06:48:43;100963.25;;;19.92;26.50
26192;BME280;13935;55.672;37.764;2023-05-10T06:50:16;100959.34;;;20.38;26.75
26192;BME280;13935;55.672;37.764;2023-05-10T06:51:34;100963.75;;;20.62;26.46
26192;BME280;13935;55.672;37.764;2023-05-10T06:52:39;100962.03;;;20.68;25.37
26192;BME280;13935;55.672;37.764;2023-05-10T06:53:43;100954.88;;;20.90;25.86
26192;BME280;13935;55.672;37.764;2023-05-10T06:54:46;100956.34;;;20.00;25.52
26192;BME280;13935;55.672;37.764;2023-05-10T06:56:11;100961.00;;;20.85;25.06
26192;BME280;13935;55.672;37.764;2023-05-10T06:57:50;100957.88;;;21.22;23.97
26192;BME280;13935;55.672;37.764;2023-05-10T06:59:17;100957.25;;;21.53;23.81
26192;BME280;13935;55.672;37.764;2023-05-10T07:00:26;100955.22;;;22.08;24.51
26192;BME280;13935;55.672;37.764;2023-05-10T07:02:35;100963.59;;;21.76;23.17
26192;BME280;13935;55.672;37.764;2023-05-10T07:04:05;100953.69;;;21.68;23.83
26192;BME280;13935;55.672;37.764;2023-05-10T07:05:35;100954.53;;;21.27;23.85
26192;BME280;13935;55.672;37.764;2023-05-10T07:06:43;100955.72;;;21.49;24.07
26192;BME280;13935;55.672;37.764;2023-05-10T07:07:49;100956.88;;;21.70;23.76
26192;BME280;13935;55.672;37.764;2023-05-10T07:08:51;100943.94;;;21.34;23.54
26192;BME280;13935;55.672;37.764;2023-05-10T07:09:55;100945.63;;;21.86;23.69
26192;BME280;13935;55.672;37.764;2023-05-10T07:11:10;100952.75;;;21.75;23.63
26192;BME280;13935;55.672;37.764;2023-05-10T07:12:16;100949.72;;;22.01;23.49
26192;BME280;13935;55.672;37.764;2023-05-10T07:13:22;100950.16;;;22.51;22.65
26192;BME280;13935;55.672;37.764;2023-05-10T07:14:25;100950.09;;;21.49;25.43
26192;BME280;13935;55.672;37.764;2023-05-10T07:15:30;100952.63;;;21.62;23.94
26192;BME280;13935;55.672;37.764;2023-05-10T07:17:01;100950.56;;;21.05;24.32
26192;BME280;13935;55.672;37.764;2023-05-10T07:18:03;100951.38;;;21.63;24.11
26192;BME280;13935;55.672;37.764;2023-05-10T07:19:07;100943.63;;;21.48;23.60
26192;BME280;13935;55.672;37.764;2023-05-10T07:20:11;100945.38;;;21.81;22.77
26192;BME280;13935;55.672;37.764;2023-05-10T07:21:15;100941.34;;;21.43;23.55
26192;BME280;13935;55.672;37.764;2023-05-10T07:22:18;100945.84;;;21.95;23.65
26192;BME280;13935;55.672;37.764;2023-05-10T07:23:21;100938.47;;;22.01;24.14
26192;BME280;13935;55.672;37.764;2023-05-10T07:27:54;100938.94;;;21.80;23.10
26192;BME280;13935;55.672;37.764;2023-05-10T07:28:58;100944.78;;;21.12;24.12
26192;BME280;13935;55.672;37.764;2023-05-10T07:30:34;100938.38;;;21.50;23.14
26192;BME280;13935;55.672;37.764;2023-05-10T07:32:10;100940.75;;;21.52;24.28
26192;BME280;13935;55.672;37.764;2023-05-10T07:33:14;100936.00;;;21.68;23.18
26192;BME280;13935;55.672;37.764;2023-05-10T07:34:18;100940.38;;;21.88;23.05
26192;BME280;13935;55.672;37.764;2023-05-10T07:35:25;100936.63;;;21.75;23.27
26192;BME280;13935;55.672;37.764;2023-05-10T07:36:30;100936.63;;;21.75;23.80
26192;BME280;13935;55.672;37.764;2023-05-10T07:37:34;100929.63;;;21.99;24.46
26192;BME280;13935;55.672;37.764;2023-05-10T07:38:37;100926.56;;;21.58;24.68
26192;BME280;13935;55.672;37.764;2023-05-10T07:39:41;100935.22;;;21.29;24.45
26192;BME280;13935;55.672;37.764;2023-05-10T07:40:43;100931.78;;;20.98;24.03
26192;BME280;13935;55.672;37.764;2023-05-10T07:41:47;100934.31;;;20.47;25.34
26192;BME280;13935;55.672;37.764;2023-05-10T07:42:49;100921.94;;;20.64;24.55
26192;BME280;13935;55.672;37.764;2023-05-10T07:43:51;100927.28;;;21.24;24.86
26192;BME280;13935;55.672;37.764;2023-05-10T07:44:53;100938.66;;;21.17;23.69
26192;BME280;13935;55.672;37.764;2023-05-10T07:45:56;100932.59;;;20.76;24.48
26192;BME280;13935;55.672;37.764;2023-05-10T07:46:59;100927.47;;;21.33;24.86
26192;BME280;13935;55.672;37.764;2023-05-10T07:48:01;100929.97;;;21.85;23.93
26192;BME280;13935;55.672;37.764;2023-05-10T07:49:04;100925.41;;;21.91;23.49
26192;BME280;13935;55.672;37.764;2023-05-10T07:50:07;100928.72;;;21.86;23.24
26192;BME280;13935;55.672;37.764;2023-05-10T07:51:11;100926.72;;;21.67;23.64
26192;BME280;13935;55.672;37.764;2023-05-10T07:52:13;100926.72;;;21.67;24.04
26192;BME280;13935;55.672;37.764;2023-05-10T07:53:15;100923.06;;;21.70;23.16
26192;BME280;13935;55.672;37.764;2023-05-10T07:54:17;100929.31;;;22.13;22.73
26192;BME280;13935;55.672;37.764;2023-05-10T07:55:20;100922.53;;;21.75;23.60
26192;BME280;13935;55.672;37.764;2023-05-10T07:56:26;100929.16;;;22.20;22.25
26192;BME280;13935;55.672;37.764;2023-05-10T07:57:31;100922.72;;;22.20;22.17
26192;BME280;13935;55.672;37.764;2023-05-10T07:58:33;100916.75;;;22.49;22.34
26192;BME280;13935;55.672;37.764;2023-05-10T07:59:35;100919.81;;;22.71;21.55
26192;BME280;13935;55.672;37.764;2023-05-10T08:00:37;100922.34;;;23.25;21.89
26192;BME280;13935;55.672;37.764;2023-05-10T08:01:41;100918.59;;;23.16;21.19
26192;BME280;13935;55.672;37.764;2023-05-10T08:02:44;100920.31;;;22.82;21.12
26192;BME280;13935;55.672;37.764;2023-05-10T08:03:46;100915.50;;;23.10;20.90
26192;BME280;13935;55.672;37.764;2023-05-10T08:04:48;100909.78;;;22.54;21.65
26192;BME280;13935;55.672;37.764;2023-05-10T08:05:50;100927.78;;;22.60;21.69
26192;BME280;13935;55.672;37.764;2023-05-10T08:06:52;100920.72;;;23.12;21.33
26192;BME280;13935;55.672;37.764;2023-05-10T08:07:55;100922.91;;;23.20;21.77
26192;BME280;13935;55.672;37.764;2023-05-10T08:08:57;100918.50;;;23.19;21.56
26192;BME280;13935;55.672;37.764;2023-05-10T08:10:02;100920.06;;;23.61;21.33
26192;BME280;13935;55.672;37.764;2023-05-10T08:11:27;100912.47;;;24.11;21.35
26192;BME280;13935;55.672;37.764;2023-05-10T08:12:37;100911.31;;;23.43;21.32
26192;BME280;13935;55.672;37.764;2023-05-10T08:13:42;100909.38;;;24.55;20.07
26192;BME280;13935;55.672;37.764;2023-05-10T08:14:47;100910.75;;;23.07;22.58
26192;BME280;13935;55.672;37.764;2023-05-10T08:16:16;100910.44;;;22.90;22.85
26192;BME280;13935;55.672;37.764;2023-05-10T08:17:19;100908.50;;;23.84;21.75
26192;BME280;13935;55.672;37.764;2023-05-10T08:18:23;100906.13;;;23.95;21.32
26192;BME280;13935;55.672;37.764;2023-05-10T08:19:25;100907.13;;;24.50;20.96
26192;BME280;13935;55.672;37.764;2023-05-10T08:20:28;100911.59;;;23.61;21.12
26192;BME280;13935;55.672;37.764;2023-05-10T08:21:30;100900.47;;;24.20;21.27
26192;BME280;13935;55.672;37.764;2023-05-10T08:22:33;100907.59;;;24.12;20.36
26192;BME280;13935;55.672;37.764;2023-05-10T08:23:35;100906.16;;;23.54;20.59
26192;BME280;13935;55.672;37.764;2023-05-10T08:24:37;100902.94;;;22.83;20.30
26192;BME280;13935;55.672;37.764;2023-05-10T08:25:40;100901.81;;;22.17;20.11
26192;BME280;13935;55.672;37.764;2023-05-10T08:26:46;100899.19;;;22.26;20.42
26192;BME280;13935;55.672;37.764;2023-05-10T08:27:51;100896.16;;;21.85;19.83
26192;BME280;13935;55.672;37.764;2023-05-10T08:28:53;100892.16;;;21.83;20.17
26192;BME280;13935;55.672;37.764;2023-05-10T08:29:56;100896.19;;;23.09;19.83
26192;BME280;13935;55.672;37.764;2023-05-10T08:31:37;100897.06;;;22.62;20.36
26192;BME280;13935;55.672;37.764;2023-05-10T08:32:57;100892.25;;;22.91;20.51
26192;BME280;13935;55.672;37.764;2023-05-10T08:34:27;100894.56;;;22.80;19.24
26192;BME280;13935;55.672;37.764;2023-05-10T08:35:45;100897.06;;;22.14;19.96
26192;BME280;13935;55.672;37.764;2023-05-10T08:36:49;100890.00;;;22.70;19.37
26192;BME280;13935;55.672;37.764;2023-05-10T08:37:53;100896.09;;;23.12;19.37
26192;BME280;13935;55.672;37.764;2023-05-10T08:38:58;100898.41;;;23.30;19.37
26192;BME280;13935;55.672;37.764;2023-05-10T08:40:20;100886.66;;;23.97;20.04
26192;BME280;13935;55.672;37.764;2023-05-10T08:41:26;100885.47;;;23.16;19.49
26192;BME280;13935;55.672;37.764;2023-05-10T08:42:34;100887.84;;;22.90;20.18
26192;BME280;13935;55.672;37.764;2023-05-10T08:43:50;100888.88;;;22.51;19.99
26192;BME280;13935;55.672;37.764;2023-05-10T08:45:08;100885.88;;;23.84;19.51
26192;BME280;13935;55.672;37.764;2023-05-10T08:46:22;100883.59;;;23.79;19.90
26192;BME280;13935;55.672;37.764;2023-05-10T08:47:27;100889.59;;;24.18;19.18
26192;BME280;13935;55.672;37.764;2023-05-10T08:48:55;100882.44;;;24.85;19.19
26192;BME280;13935;55.672;37.764;2023-05-10T08:50:02;100883.25;;;24.14;18.86
26192;BME280;13935;55.672;37.764;2023-05-10T08:51:26;100882.25;;;24.21;19.77
26192;BME280;13935;55.672;37.764;2023-05-10T08:52:47;100880.22;;;23.31;19.59
26192;BME280;13935;55.672;37.764;2023-05-10T08:53:57;100883.16;;;23.93;19.31
26192;BME280;13935;55.672;37.764;2023-05-10T08:55:04;100877.03;;;23.94;19.95
26192;BME280;13935;55.672;37.764;2023-05-10T09:17:46;100849.13;;;22.30;20.42
26192;BME280;13935;55.672;37.764;2023-05-10T09:29:42;100840.25;;;21.29;22.02
26192;BME280;13935;55.672;37.764;2023-05-10T09:30:53;100833.28;;;20.79;22.95
26192;BME280;13935;55.672;37.764;2023-05-10T09:32:20;100832.81;;;21.00;22.45
26192;BME280;13935;55.672;37.764;2023-05-10T09:33:48;100826.72;;;20.63;22.44
26192;BME280;13935;55.672;37.764;2023-05-10T09:35:52;100829.22;;;20.80;23.26
26192;BME280;13935;55.672;37.764;2023-05-10T09:46:08;100817.59;;;19.64;24.06
26192;BME280;13935;55.672;37.764;2023-05-10T09:48:49;100818.16;;;19.52;25.54
26192;BME280;13935;55.672;37.764;2023-05-10T09:50:10;100819.28;;;19.32;24.28
26192;BME280;13935;55.672;37.764;2023-05-10T09:51:29;100815.59;;;19.87;24.34
26192;BME280;13935;55.672;37.764;2023-05-10T09:52:46;100823.22;;;20.13;24.04
26192;BME280;13935;55.672;37.764;2023-05-10T09:54:12;100818.13;;;19.29;24.24
26192;BME280;13935;55.672;37.764;2023-05-10T09:55:15;100820.38;;;19.11;24.17
26192;BME280;13935;55.672;37.764;2023-05-10T09:58:19;100815.53;;;19.68;24.00
26192;BME280;13935;55.672;37.764;2023-05-10T09:59:42;100813.41;;;19.75;23.25
26192;BME280;13935;55.672;37.764;2023-05-10T10:00:49;100806.91;;;19.78;23.37
26192;BME280;13935;55.672;37.764;2023-05-10T10:02:11;100809.34;;;20.03;23.60
26192;BME280;13935;55.672;37.764;2023-05-10T10:03:16;100810.78;;;19.88;23.24
26192;BME280;13935;55.672;37.764;2023-05-10T10:04:19;100816.47;;;20.10;23.20
26192;BME280;13935;55.672;37.764;2023-05-10T10:05:28;100811.78;;;20.01;22.40
26192;BME280;13935;55.672;37.764;2023-05-10T10:06:40;100808.75;;;19.65;23.17
26192;BME280;13935;55.672;37.764;2023-05-10T10:07:43;100807.00;;;19.75;22.94
26192;BME280;13935;55.672;37.764;2023-05-10T10:08:45;100803.41;;;19.97;23.21
26192;BME280;13935;55.672;37.764;2023-05-10T10:09:48;100808.50;;;20.28;23.31
26192;BME280;13935;55.672;37.764;2023-05-10T10:10:50;100803.84;;;20.41;22.59
26192;BME280;13935;55.672;37.764;2023-05-10T10:11:54;100804.78;;;20.12;22.71
26192;BME280;13935;55.672;37.764;2023-05-10T10:12:57;100804.00;;;20.11;22.49
26192;BME280;13935;55.672;37.764;2023-05-10T10:13:59;100791.00;;;20.60;22.94
26192;BME280;13935;55.672;37.764;2023-05-10T10:15:01;100793.69;;;20.47;22.20
26192;BME280;13935;55.672;37.764;2023-05-10T10:16:06;100793.81;;;20.40;22.50
26192;BME280;13935;55.672;37.764;2023-05-10T10:17:10;100796.94;;;20.23;22.99
26192;BME280;13935;55.672;37.764;2023-05-10T10:18:14;100791.50;;;20.35;23.00
26192;BME280;13935;55.672;37.764;2023-05-10T10:19:20;100792.38;;;20.09;22.58
26192;BME280;13935;55.672;37.764;2023-05-10T10:20:26;100795.84;;;20.17;22.65
26192;BME280;13935;55.672;37.764;2023-05-10T10:21:28;100791.56;;;20.32;22.66
26192;BME280;13935;55.672;37.764;2023-05-10T10:22:31;100788.84;;;20.06;24.02
26192;BME280;13935;55.672;37.764;2023-05-10T10:23:33;100789.69;;;20.03;23.19
26192;BME280;13935;55.672;37.764;2023-05-10T10:24:36;100796.44;;;20.28;24.13
26192;BME280;13935;55.672;37.764;2023-05-10T10:25:38;100788.91;;;20.44;23.24
26192;BME280;13935;55.672;37.764;2023-05-10T10:26:42;100785.53;;;20.72;23.00
26192;BME280;13935;55.672;37.764;2023-05-10T10:29:00;100784.97;;;21.19;23.11
26192;BME280;13935;55.672;37.764;2023-05-10T10:34:49;100786.06;;;21.41;22.83
26192;BME280;13935;55.672;37.764;2023-05-10T10:35:52;100780.19;;;21.16;23.30
26192;BME280;13935;55.672;37.764;2023-05-10T10:36:57;100777.19;;;21.07;23.59
26192;BME280;13935;55.672;37.764;2023-05-10T10:38:00;100784.47;;;20.66;23.73
26192;BME280;13935;55.672;37.764;2023-05-10T10:39:09;100786.19;;;20.60;23.44
26192;BME280;13935;55.672;37.764;2023-05-10T10:41:48;100778.47;;;20.22;24.31
26192;BME280;13935;55.672;37.764;2023-05-10T10:42:51;100768.50;;;20.40;23.54
26192;BME280;13935;55.672;37.764;2023-05-10T10:45:39;100768.13;;;20.38;23.34
26192;BME280;13935;55.672;37.764;2023-05-10T10:48:22;100766.28;;;20.71;23.74
26192;BME280;13935;55.672;37.764;2023-05-10T10:49:24;100766.00;;;20.65;23.51
26192;BME280;13935;55.672;37.764;2023-05-10T10:50:26;100763.47;;;20.71;23.58
26192;BME280;13935;55.672;37.764;2023-05-10T10:51:29;100766.44;;;20.83;23.80
26192;BME280;13935;55.672;37.764;2023-05-10T10:52:36;100768.19;;;20.77;24.60
26192;BME280;13935;55.672;37.764;2023-05-10T10:53:41;100762.41;;;20.84;24.80
26192;BME280;13935;55.672;37.764;2023-05-10T10:55:08;100760.38;;;21.04;24.75
26192;BME280;13935;55.672;37.764;2023-05-10T10:57:25;100761.59;;;21.03;23.05
26192;BME280;13935;55.672;37.764;2023-05-10T10:58:31;100765.81;;;20.33;23.36
26192;BME280;13935;55.672;37.764;2023-05-10T10:59:34;100759.50;;;20.49;23.29
26192;BME280;13935;55.672;37.764;2023-05-10T11:00:36;100760.50;;;20.58;23.28
26192;BME280;13935;55.672;37.764;2023-05-10T11:01:41;100760.91;;;20.37;23.11
26192;BME280;13935;55.672;37.764;2023-05-10T11:03:03;100761.06;;;20.30;23.69
26192;BME280;13935;55.672;37.764;2023-05-10T11:06:35;100757.19;;;20.02;24.10
26192;BME280;13935;55.672;37.764;2023-05-10T11:07:51;100757.88;;;19.83;24.39
26192;BME280;13935;55.672;37.764;2023-05-10T11:08:53;100757.16;;;19.79;23.90
26192;BME280;13935;55.672;37.764;2023-05-10T11:10:04;100752.25;;;20.09;23.75
26192;BME280;13935;55.672;37.764;2023-05-10T11:11:06;100745.69;;;20.35;23.78
26192;BME280;13935;55.672;37.764;2023-05-10T11:12:12;100743.34;;;20.33;23.77
26192;BME280;13935;55.672;37.764;2023-05-10T11:13:15;100746.22;;;20.30;24.30
26192;BME280;13935;55.672;37.764;2023-05-10T11:14:20;100738.09;;;20.35;24.29
26192;BME280;13935;55.672;37.764;2023-05-10T11:15:29;100740.53;;;20.53;25.23
26192;BME280;13935;55.672;37.764;2023-05-10T11:16:47;100744.22;;;19.85;24.64
26192;BME280;13935;55.672;37.764;2023-05-10T11:17:53;100742.13;;;19.66;25.37
26192;BME280;13935;55.672;37.764;2023-05-10T11:19:04;100739.94;;;19.54;24.53
26192;BME280;13935;55.672;37.764;2023-05-10T11:20:14;100745.44;;;19.08;24.10
26192;BME280;13935;55.672;37.764;2023-05-10T11:21:20;100743.03;;;19.07;24.73
26192;BME280;13935;55.672;37.764;2023-05-10T11:22:24;100735.72;;;19.16;24.21
26192;BME280;13935;55.672;37.764;2023-05-10T11:24:56;100740.38;;;18.66;25.26
26192;BME280;13935;55.672;37.764;2023-05-10T11:26:00;100735.50;;;18.70;25.07
26192;BME280;13935;55.672;37.764;2023-05-10T11:27:06;100736.06;;;18.88;25.17
26192;BME280;13935;55.672;37.764;2023-05-10T11:28:08;100731.00;;;19.10;24.85
26192;BME280;13935;55.672;37.764;2023-05-10T11:29:13;100732.03;;;19.19;25.00
26192;BME280;13935;55.672;37.764;2023-05-10T11:30:16;100733.72;;;18.83;24.81
26192;BME280;13935;55.672;37.764;2023-05-10T11:31:20;100730.34;;;18.95;24.77
26192;BME280;13935;55.672;37.764;2023-05-10T11:32:29;100722.22;;;19.04;25.43
26192;BME280;13935;55.672;37.764;2023-05-10T11:34:31;100730.31;;;18.99;25.19
26192;BME280;13935;55.672;37.764;2023-05-10T11:35:37;100730.19;;;18.79;25.37
26192;BME280;13935;55.672;37.764;2023-05-10T11:36:51;100727.19;;;18.63;25.04
26192;BME280;13935;55.672;37.764;2023-05-10T11:37:53;100728.16;;;18.80;25.11
26192;BME280;13935;55.672;37.764;2023-05-10T11:38:56;100727.53;;;18.69;25.47
26192;BME280;13935;55.672;37.764;2023-05-10T11:39:58;100728.50;;;18.85;25.28
26192;BME280;13935;55.672;37.764;2023-05-10T11:41:04;100725.50;;;18.99;26.00
26192;BME280;13935;55.672;37.764;2023-05-10T11:42:12;100719.38;;;19.08;25.22
26192;BME280;13935;55.672;37.764;2023-05-10T11:43:14;100724.44;;;19.20;24.91
26192;BME280;13935;55.672;37.764;2023-05-10T11:44:16;100712.63;;;19.32;24.83
26192;BME280;13935;55.672;37.764;2023-05-10T11:45:18;100710.25;;;19.30;24.52
26192;BME280;13935;55.672;37.764;2023-05-10T11:46:22;100712.19;;;19.33;24.68
26192;BME280;13935;55.672;37.764;2023-05-10T11:47:28;100716.06;;;19.65;24.51
26192;BME280;13935;55.672;37.764;2023-05-10T11:48:31;100718.75;;;19.72;24.50
26192;BME280;13935;55.672;37.764;2023-05-10T11:49:33;100717.56;;;19.47;24.67
26192;BME280;13935;55.672;37.764;2023-05-10T11:50:36;100710.38;;;19.46;24.95
26192;BME280;13935;55.672;37.764;2023-05-10T11:51:38;100713.88;;;19.27;25.32
26192;BME280;13935;55.672;37.764;2023-05-10T11:52:42;100715.47;;;19.28;24.99
26192;BME280;13935;55.672;37.764;2023-05-10T11:53:44;100710.16;;;19.60;24.22
26192;BME280;13935;55.672;37.764;2023-05-10T11:54:51;100715.09;;;19.26;24.94
26192;BME280;13935;55.672;37.764;2023-05-10T11:55:54;100712.41;;;19.19;24.60
26192;BME280;13935;55.672;37.764;2023-05-10T11:56:57;100707.53;;;18.97;24.96
26192;BME280;13935;55.672;37.764;2023-05-10T11:58:00;100707.75;;;19.09;24.98
26192;BME280;13935;55.672;37.764;2023-05-10T11:59:03;100715.28;;;19.16;25.56
26192;BME280;13935;55.672;37.764;2023-05-10T12:00:05;100706.91;;;19.12;25.18
26192;BME280;13935;55.672;37.764;2023-05-10T12:01:09;100703.53;;;19.24;25.67
26192;BME280;13935;55.672;37.764;2023-05-10T12:02:15;100701.59;;;19.18;25.74
26192;BME280;13935;55.672;37.764;2023-05-10T12:03:17;100708.97;;;19.35;25.36
26192;BME280;13935;55.672;37.764;2023-05-10T12:04:21;100702.50;;;19.37;25.17
26192;BME280;13935;55.672;37.764;2023-05-10T12:05:24;100696.41;;;19.16;25.55
26192;BME280;13935;55.672;37.764;2023-05-10T12:06:29;100703.63;;;19.17;25.37
26192;BME280;13935;55.672;37.764;2023-05-10T12:07:36;100699.84;;;19.01;25.00
26192;BME280;13935;55.672;37.764;2023-05-10T12:08:45;100696.69;;;18.95;25.24
26192;BME280;13935;55.672;37.764;2023-05-10T12:10:04;100697.03;;;19.01;25.68
26192;BME280;13935;55.672;37.764;2023-05-10T12:11:08;100695.47;;;18.70;25.33
26192;BME280;13935;55.672;37.764;2023-05-10T12:12:16;100693.88;;;18.69;25.53
26192;BME280;13935;55.672;37.764;2023-05-10T12:13:19;100694.69;;;18.69;25.75
26192;BME280;13935;55.672;37.764;2023-05-10T12:14:23;100697.69;;;18.82;25.73
26192;BME280;13935;55.672;37.764;2023-05-10T12:15:27;100690.50;;;19.07;25.57
26192;BME280;13935;55.672;37.764;2023-05-10T12:16:29;100689.72;;;19.33;25.62
26192;BME280;13935;55.672;37.764;2023-05-10T12:17:32;100697.16;;;19.20;26.13
26192;BME280;13935;55.672;37.764;2023-05-10T12:18:39;100692.78;;;18.89;25.56
26192;BME280;13935;55.672;37.764;2023-05-10T12:19:41;100688.13;;;19.32;25.51
26192;BME280;13935;55.672;37.764;2023-05-10T12:20:45;100693.94;;;18.92;25.46
26192;BME280;13935;55.672;37.764;2023-05-10T12:21:47;100693.53;;;18.93;25.71
26192;BME280;13935;55.672;37.764;2023-05-10T12:22:54;100696.69;;;18.95;25.27
26192;BME280;13935;55.672;37.764;2023-05-10T12:24:03;100689.63;;;18.58;25.79
26192;BME280;13935;55.672;37.764;2023-05-10T12:25:06;100683.25;;;18.83;25.46
26192;BME280;13935;55.672;37.764;2023-05-10T12:26:09;100686.25;;;18.99;25.78
26192;BME280;13935;55.672;37.764;2023-05-10T12:27:17;100687.88;;;18.97;25.84
26192;BME280;13935;55.672;37.764;2023-05-10T12:28:21;100687.44;;;18.98;25.78
26192;BME280;13935;55.672;37.764;2023-05-10T12:29:23;100688.56;;;19.04;26.14
26192;BME280;13935;55.672;37.764;2023-05-10T12:30:28;100684.38;;;18.89;25.95
26192;BME280;13935;55.672;37.764;2023-05-10T12:31:30;100680.19;;;18.74;25.95
26192;BME280;13935;55.672;37.764;2023-05-10T12:32:43;100679.63;;;18.86;25.80
26192;BME280;13935;55.672;37.764;2023-05-10T12:33:46;100685.56;;;18.88;25.76
26192;BME280;13935;55.672;37.764;2023-05-10T12:34:49;100679.22;;;18.84;25.77
26192;BME280;13935;55.672;37.764;2023-05-10T12:35:58;100684.75;;;18.91;25.62
26192;BME280;13935;55.672;37.764;2023-05-10T12:37:02;100676.72;;;18.93;26.33
26192;BME280;13935;55.672;37.764;2023-05-10T12:38:26;100681.66;;;18.82;26.13
26192;BME280;13935;55.672;37.764;2023-05-10T12:39:41;100686.63;;;18.98;25.95
26192;BME280;13935;55.672;37.764;2023-05-10T12:40:43;100677.28;;;19.34;26.29
26192;BME280;13935;55.672;37.764;2023-05-10T12:41:46;100682.09;;;19.07;25.70
26192;BME280;13935;55.672;37.764;2023-05-10T12:42:53;100681.84;;;18.72;25.72
26192;BME280;13935;55.672;37.764;2023-05-10T12:43:58;100678.44;;;18.84;25.88
26192;BME280;13935;55.672;37.764;2023-05-10T12:45:01;100685.66;;;18.85;26.21
26192;BME280;13935;55.672;37.764;2023-05-10T12:46:10;100677.34;;;19.04;26.22
26192;BME280;13935;55.672;37.764;2023-05-10T12:47:13;100675.41;;;19.28;26.07
26192;BME280;13935;55.672;37.764;2023-05-10T12:48:15;100677.25;;;19.11;26.30
26192;BME280;13935;55.672;37.764;2023-05-10T12:49:17;100676.03;;;18.82;25.90
26192;BME280;13935;55.672;37.764;2023-05-10T12:50:20;100679.75;;;19.02;26.37
26192;BME280;13935;55.672;37.764;2023-05-10T12:51:23;100687.66;;;18.84;26.66
26192;BME280;13935;55.672;37.764;2023-05-10T12:52:25;100691.41;;;18.74;26.37
26192;BME280;13935;55.672;37.764;2023-05-10T12:53:27;100690.66;;;18.70;26.58
26192;BME280;13935;55.672;37.764;2023-05-10T12:54:29;100689.25;;;18.56;26.82
26192;BME280;13935;55.672;37.764;2023-05-10T12:55:32;100679.63;;;18.57;27.05
26192;BME280;13935;55.672;37.764;2023-05-10T12:56:34;100678.97;;;18.75;26.55
26192;BME280;13935;55.672;37.764;2023-05-10T12:57:37;100673.63;;;18.84;26.74
26192;BME280;13935;55.672;37.764;2023-05-10T12:58:39;100680.63;;;18.99;26.03
26192;BME280;13935;55.672;37.764;2023-05-10T12:59:49;100679.75;;;19.02;26.44
26192;BME280;13935;55.672;37.764;2023-05-10T13:00:52;100680.41;;;19.13;26.45
26192;BME280;13935;55.672;37.764;2023-05-10T13:01:54;100675.63;;;19.14;26.14
26192;BME280;13935;55.672;37.764;2023-05-10T13:02:57;100670.38;;;19.16;26.50
26192;BME280;13935;55.672;37.764;2023-05-10T13:03:59;100668.84;;;19.11;26.31
26192;BME280;13935;55.672;37.764;2023-05-10T13:05:02;100674.41;;;19.15;26.58
26192;BME280;13935;55.672;37.764;2023-05-10T13:06:04;100674.59;;;19.27;27.06
26192;BME280;13935;55.672;37.764;2023-05-10T13:07:08;100667.44;;;18.96;26.70
26192;BME280;13935;55.672;37.764;2023-05-10T13:08:10;100681.56;;;18.89;26.97
26192;BME280;13935;55.672;37.764;2023-05-10T13:09:13;100673.47;;;18.68;26.65
26192;BME280;13935;55.672;37.764;2023-05-10T13:10:16;100673.91;;;18.63;26.14
26192;BME280;13935;55.672;37.764;2023-05-10T13:11:18;100668.31;;;18.63;26.77
26192;BME280;13935;55.672;37.764;2023-05-10T13:12:23;100670.38;;;18.86;27.27
26192;BME280;13935;55.672;37.764;2023-05-10T13:13:26;100667.38;;;18.73;27.07
26192;BME280;13935;55.672;37.764;2023-05-10T13:14:29;100664.53;;;18.77;26.61
26192;BME280;13935;55.672;37.764;2023-05-10T13:15:32;100660.22;;;18.69;27.07
26192;BME280;13935;55.672;37.764;2023-05-10T13:16:34;100668.31;;;18.63;26.82
26192;BME280;13935;55.672;37.764;2023-05-10T13:17:38;100662.28;;;18.65;27.11
26192;BME280;13935;55.672;37.764;2023-05-10T13:18:42;100660.81;;;18.83;27.17
26192;BME280;13935;55.672;37.764;2023-05-10T13:19:44;100660.22;;;18.69;27.09
26192;BME280;13935;55.672;37.764;2023-05-10T13:20:46;100661.13;;;18.63;27.43
26192;BME280;13935;55.672;37.764;2023-05-10T13:21:48;100664.88;;;18.79;27.25
26192;BME280;13935;55.672;37.764;2023-05-10T13:22:50;100666.19;;;18.45;27.25
26192;BME280;13935;55.672;37.764;2023-05-10T13:23:58;100670.97;;;18.44;27.31
26192;BME280;13935;55.672;37.764;2023-05-10T13:25:05;100672.28;;;18.36;28.11
26192;BME280;13935;55.672;37.764;2023-05-10T13:26:15;100670.41;;;18.26;27.66
26192;BME280;13935;55.672;37.764;2023-05-10T13:44:24;100661.09;;;17.99;28.46
26192;BME280;13935;55.672;37.764;2023-05-10T14:23:07;100652.75;;;18.29;28.73
26192;BME280;13935;55.672;37.764;2023-05-10T15:09:19;100624.78;;;17.52;30.53